createdAt,value
2016-08-15T00:00:43.674Z,11.33
2016-08-15T00:01:42.397Z,11.35
2016-08-15T00:02:43.734Z,11.34
2016-08-15T00:03:42.305Z,11.27
2016-08-15T00:04:43.045Z,11.37
2016-08-15T00:05:43.070Z,11.26
2016-08-15T00:06:42.453Z,11.27
2016-08-15T00:07:43.161Z,11.25
2016-08-15T00:08:43.126Z,11.2
2016-08-15T00:09:43.199Z,11.15
2016-08-15T00:10:43.288Z,11.15
2016-08-15T00:11:42.474Z,11.08
2016-08-15T00:12:43.247Z,11.12
2016-08-15T00:13:43.919Z,11.07
2016-08-15T00:14:43.272Z,11.02
2016-08-15T00:15:43.972Z,11.1
2016-08-15T00:16:44.092Z,11.07
2016-08-15T00:17:44.005Z,11.01
2016-08-15T00:18:43.345Z,11.01
2016-08-15T00:19:42.724Z,11
2016-08-15T00:20:43.385Z,11
2016-08-15T00:21:42.670Z,10.95
2016-08-15T00:22:43.410Z,10.98
2016-08-15T00:23:44.165Z,10.97
2016-08-15T00:24:42.757Z,10.86
2016-08-15T00:25:43.483Z,10.92
2016-08-15T00:26:44.194Z,10.9
2016-08-15T00:27:43.674Z,10.84
2016-08-15T00:28:43.523Z,10.87
2016-08-15T00:29:43.605Z,10.83
2016-08-15T00:30:43.579Z,10.84
2016-08-15T00:31:44.343Z,10.87
2016-08-15T00:32:44.316Z,10.79
2016-08-15T00:33:43.621Z,10.84
2016-08-15T00:34:44.376Z,10.84
2016-08-15T00:35:44.419Z,10.83
2016-08-15T00:36:43.749Z,10.75
2016-08-15T00:37:43.704Z,10.8
2016-08-15T00:38:43.876Z,10.79
2016-08-15T00:39:43.759Z,10.72
2016-08-15T00:40:43.856Z,10.76
2016-08-15T00:41:43.794Z,10.72
2016-08-15T00:42:43.155Z,10.68
2016-08-15T00:43:43.835Z,10.77
2016-08-15T00:44:43.153Z,10.75
2016-08-15T00:45:44.580Z,10.77
2016-08-15T00:46:43.886Z,10.76
2016-08-15T00:47:43.907Z,10.77
2016-08-15T00:48:43.226Z,10.75
2016-08-15T00:49:43.240Z,10.79
2016-08-15T00:50:44.686Z,10.77
2016-08-15T00:51:44.684Z,10.71
2016-08-15T00:52:44.715Z,10.77
2016-08-15T00:53:44.745Z,10.8
2016-08-15T00:54:43.347Z,10.77
2016-08-15T00:55:44.077Z,10.69
2016-08-15T00:56:44.099Z,10.8
2016-08-15T00:57:44.116Z,10.71
2016-08-15T00:58:43.434Z,10.69
2016-08-15T00:59:44.145Z,10.76
2016-08-15T01:00:44.875Z,10.77
2016-08-15T01:01:44.184Z,10.8
2016-08-15T01:02:44.207Z,10.71
2016-08-15T01:03:44.948Z,10.69
2016-08-15T01:04:44.943Z,10.69
2016-08-15T01:05:44.257Z,10.72
2016-08-15T01:06:44.376Z,10.72
2016-08-15T01:07:45.017Z,10.64
2016-08-15T01:08:44.335Z,10.65
2016-08-15T01:09:44.355Z,10.68
2016-08-15T01:10:45.073Z,10.72
2016-08-15T01:11:44.393Z,10.62
2016-08-15T01:12:45.113Z,10.67
2016-08-15T01:13:45.132Z,10.62
2016-08-15T01:14:44.446Z,10.64
2016-08-15T01:15:43.775Z,10.65
2016-08-15T01:16:45.207Z,10.61
2016-08-15T01:17:45.235Z,10.57
2016-08-15T01:18:45.236Z,10.53
2016-08-15T01:19:45.365Z,10.51
2016-08-15T01:20:45.275Z,10.53
2016-08-15T01:21:44.628Z,10.59
2016-08-15T01:22:44.607Z,10.49
2016-08-15T01:23:44.630Z,10.53
2016-08-15T01:24:45.379Z,10.48
2016-08-15T01:25:44.675Z,10.59
2016-08-15T01:26:44.684Z,10.51
2016-08-15T01:27:43.996Z,10.58
2016-08-15T01:28:44.026Z,10.53
2016-08-15T01:29:45.456Z,10.49
2016-08-15T01:30:45.487Z,10.55
2016-08-15T01:31:45.513Z,10.57
2016-08-15T01:32:44.104Z,10.55
2016-08-15T01:33:44.830Z,10.58
2016-08-15T01:34:44.856Z,10.48
2016-08-15T01:35:44.864Z,10.53
2016-08-15T01:36:44.890Z,10.46
2016-08-15T01:37:45.613Z,10.41
2016-08-15T01:38:45.635Z,10.42
2016-08-15T01:39:44.946Z,10.41
2016-08-15T01:40:44.966Z,10.41
2016-08-15T01:41:45.007Z,10.43
2016-08-15T01:42:45.006Z,10.39
2016-08-15T01:43:45.738Z,10.28
2016-08-15T01:44:45.055Z,10.45
2016-08-15T01:45:45.756Z,10.27
2016-08-15T01:46:45.087Z,10.33
2016-08-15T01:47:45.096Z,10.25
2016-08-15T01:48:45.125Z,10.27
2016-08-15T01:49:45.222Z,10.31
2016-08-15T01:50:45.174Z,10.31
2016-08-15T01:51:45.892Z,10.46
2016-08-15T01:52:45.192Z,10.45
2016-08-15T01:53:44.516Z,10.31
2016-08-15T01:54:46.056Z,10.46
2016-08-15T01:55:45.255Z,10.43
2016-08-15T01:56:45.398Z,10.34
2016-08-15T01:57:44.598Z,10.34
2016-08-15T01:58:45.332Z,10.38
2016-08-15T01:59:45.336Z,10.39
2016-08-15T02:00:45.356Z,10.41
2016-08-15T02:01:45.383Z,10.38
2016-08-15T02:02:44.684Z,10.42
2016-08-15T02:03:46.114Z,10.41
2016-08-15T02:04:45.429Z,10.42
2016-08-15T02:05:46.155Z,10.45
2016-08-15T02:06:46.179Z,10.36
2016-08-15T02:07:44.926Z,10.39
2016-08-15T02:08:45.503Z,10.49
2016-08-15T02:09:46.493Z,10.39
2016-08-15T02:10:46.253Z,10.39
2016-08-15T02:11:45.582Z,10.39
2016-08-15T02:12:45.591Z,10.43
2016-08-15T02:13:46.336Z,10.39
2016-08-15T02:14:45.635Z,10.43
2016-08-15T02:15:45.033Z,10.42
2016-08-15T02:16:46.387Z,10.43
2016-08-15T02:17:46.404Z,10.34
2016-08-15T02:18:45.774Z,10.39
2016-08-15T02:19:45.733Z,10.33
2016-08-15T02:20:46.535Z,10.39
2016-08-15T02:21:45.785Z,10.3
2016-08-15T02:22:45.873Z,10.39
2016-08-15T02:23:45.802Z,10.48
2016-08-15T02:24:45.814Z,10.39
2016-08-15T02:25:45.128Z,10.39
2016-08-15T02:26:45.949Z,10.39
2016-08-15T02:27:46.589Z,10.42
2016-08-15T02:28:45.893Z,10.38
2016-08-15T02:29:45.920Z,10.45
2016-08-15T02:30:46.662Z,10.46
2016-08-15T02:31:46.664Z,10.49
2016-08-15T02:32:45.275Z,10.51
2016-08-15T02:33:46.011Z,10.39
2016-08-15T02:34:46.731Z,10.41
2016-08-15T02:35:46.753Z,10.34
2016-08-15T02:36:46.064Z,10.41
2016-08-15T02:37:46.903Z,10.39
2016-08-15T02:38:46.801Z,10.39
2016-08-15T02:39:46.118Z,10.41
2016-08-15T02:40:46.847Z,10.38
2016-08-15T02:41:45.475Z,10.41
2016-08-15T02:42:45.461Z,10.48
2016-08-15T02:43:45.496Z,10.39
2016-08-15T02:44:46.931Z,10.41
2016-08-15T02:45:45.530Z,10.46
2016-08-15T02:46:46.262Z,10.43
2016-08-15T02:47:46.271Z,10.48
2016-08-15T02:48:46.300Z,10.38
2016-08-15T02:49:47.031Z,10.46
2016-08-15T02:50:45.620Z,10.39
2016-08-15T02:51:45.643Z,10.3
2016-08-15T02:52:45.680Z,10.43
2016-08-15T02:53:46.402Z,10.39
2016-08-15T02:54:47.120Z,10.41
2016-08-15T02:55:46.436Z,10.38
2016-08-15T02:56:47.151Z,10.41
2016-08-15T02:57:47.190Z,10.42
2016-08-15T02:58:45.781Z,10.43
2016-08-15T02:59:47.222Z,10.41
2016-08-15T03:00:46.526Z,10.33
2016-08-15T03:01:46.548Z,10.45
2016-08-15T03:02:47.290Z,10.33
2016-08-15T03:03:46.591Z,10.23
2016-08-15T03:04:46.608Z,10.23
2016-08-15T03:05:46.657Z,10.27
2016-08-15T03:06:45.988Z,10.17
2016-08-15T03:07:47.391Z,10.1
2016-08-15T03:08:47.398Z,10.23
2016-08-15T03:09:46.049Z,10.18
2016-08-15T03:10:47.439Z,10.13
2016-08-15T03:11:46.752Z,10.18
2016-08-15T03:12:47.590Z,10.21
2016-08-15T03:13:46.324Z,10.12
2016-08-15T03:14:47.722Z,10.17
2016-08-15T03:15:46.817Z,10.06
2016-08-15T03:16:47.550Z,10.02
2016-08-15T03:17:47.580Z,10.1
2016-08-15T03:18:46.882Z,10.1
2016-08-15T03:19:47.014Z,10.09
2016-08-15T03:20:46.928Z,10.17
2016-08-15T03:21:46.949Z,10.17
2016-08-15T03:22:46.965Z,10.07
2016-08-15T03:23:46.282Z,10.07
2016-08-15T03:24:46.308Z,10.07
2016-08-15T03:25:47.724Z,10.02
2016-08-15T03:26:47.049Z,10.02
2016-08-15T03:27:46.351Z,10.05
2016-08-15T03:28:47.072Z,10.09
2016-08-15T03:29:46.469Z,10.1
2016-08-15T03:30:47.819Z,10.09
2016-08-15T03:31:47.841Z,10.03
2016-08-15T03:32:47.860Z,10.06
2016-08-15T03:33:47.170Z,9.95
2016-08-15T03:34:48.001Z,9.97
2016-08-15T03:35:46.509Z,9.94
2016-08-15T03:36:46.621Z,9.94
2016-08-15T03:37:47.245Z,9.92
2016-08-15T03:38:47.997Z,9.92
2016-08-15T03:39:47.990Z,9.88
2016-08-15T03:40:47.319Z,9.9
2016-08-15T03:41:47.329Z,9.92
2016-08-15T03:42:47.337Z,9.91
2016-08-15T03:43:47.364Z,9.81
2016-08-15T03:44:47.383Z,9.81
2016-08-15T03:45:47.490Z,9.8
2016-08-15T03:46:48.129Z,9.9
2016-08-15T03:47:48.159Z,9.88
2016-08-15T03:48:48.169Z,9.85
2016-08-15T03:49:48.202Z,9.87
2016-08-15T03:50:47.505Z,9.9
2016-08-15T03:51:47.535Z,9.76
2016-08-15T03:52:46.847Z,9.87
2016-08-15T03:53:48.287Z,9.81
2016-08-15T03:54:46.892Z,9.88
2016-08-15T03:55:47.599Z,9.85
2016-08-15T03:56:46.921Z,9.82
2016-08-15T03:57:48.354Z,9.81
2016-08-15T03:58:47.001Z,9.87
2016-08-15T03:59:48.378Z,9.87
2016-08-15T04:00:48.535Z,9.91
2016-08-15T04:01:47.722Z,9.92
2016-08-15T04:02:47.740Z,9.87
2016-08-15T04:03:47.750Z,9.87
2016-08-15T04:04:47.828Z,9.94
2016-08-15T04:05:47.812Z,9.85
2016-08-15T04:06:48.521Z,9.91
2016-08-15T04:07:48.530Z,9.92
2016-08-15T04:08:47.157Z,9.87
2016-08-15T04:09:47.877Z,9.9
2016-08-15T04:10:47.901Z,9.84
2016-08-15T04:11:47.941Z,9.85
2016-08-15T04:12:47.931Z,9.95
2016-08-15T04:13:47.970Z,9.87
2016-08-15T04:14:48.671Z,9.88
2016-08-15T04:15:47.987Z,9.95
2016-08-15T04:16:48.009Z,9.91
2016-08-15T04:17:48.806Z,9.97
2016-08-15T04:18:48.762Z,9.95
2016-08-15T04:19:48.870Z,9.95
2016-08-15T04:20:48.787Z,9.94
2016-08-15T04:21:48.120Z,10
2016-08-15T04:22:48.841Z,10.03
2016-08-15T04:23:48.150Z,9.94
2016-08-15T04:24:48.226Z,10.05
2016-08-15T04:25:48.188Z,10.09
2016-08-15T04:26:48.203Z,10.06
2016-08-15T04:27:48.231Z,10.06
2016-08-15T04:28:47.602Z,10.07
2016-08-15T04:29:48.285Z,10.1
2016-08-15T04:30:48.282Z,10.17
2016-08-15T04:31:49.015Z,10.12
2016-08-15T04:32:47.706Z,10.24
2016-08-15T04:33:49.042Z,10.33
2016-08-15T04:34:49.081Z,10.31
2016-08-15T04:35:47.675Z,10.34
2016-08-15T04:36:47.699Z,10.36
2016-08-15T04:37:49.141Z,10.39
2016-08-15T04:38:48.438Z,10.39
2016-08-15T04:39:49.194Z,10.42
2016-08-15T04:40:48.471Z,10.53
2016-08-15T04:41:48.488Z,10.58
2016-08-15T04:42:48.517Z,10.67
2016-08-15T04:43:47.826Z,10.61
2016-08-15T04:44:47.852Z,10.68
2016-08-15T04:45:49.288Z,10.69
2016-08-15T04:46:49.448Z,10.68
2016-08-15T04:47:47.891Z,10.79
2016-08-15T04:48:48.791Z,10.77
2016-08-15T04:49:49.481Z,10.84
2016-08-15T04:50:49.421Z,10.84
2016-08-15T04:51:48.735Z,11
2016-08-15T04:52:49.553Z,11.07
2016-08-15T04:53:48.722Z,11.22
2016-08-15T04:54:49.577Z,11.34
2016-08-15T04:55:48.786Z,11.56
2016-08-15T04:56:48.079Z,11.59
2016-08-15T04:57:49.738Z,11.73
2016-08-15T04:58:49.681Z,11.83
2016-08-15T04:59:48.850Z,11.96
2016-08-15T05:00:49.635Z,12.03
2016-08-15T05:01:48.992Z,12.23
2016-08-15T05:02:48.203Z,12.3
2016-08-15T05:03:49.018Z,12.36
2016-08-15T05:04:49.701Z,12.45
2016-08-15T05:05:49.112Z,12.63
2016-08-15T05:06:49.681Z,12.63
2016-08-15T05:07:48.313Z,12.73
2016-08-15T05:08:49.742Z,12.73
2016-08-15T05:09:49.062Z,12.8
2016-08-15T05:10:49.091Z,12.88
2016-08-15T05:11:49.780Z,12.81
2016-08-15T05:12:49.819Z,12.98
2016-08-15T05:13:49.833Z,12.93
2016-08-15T05:14:49.880Z,13.03
2016-08-15T05:15:49.895Z,13.05
2016-08-15T05:16:49.920Z,13.05
2016-08-15T05:17:49.938Z,13.19
2016-08-15T05:18:49.224Z,13.19
2016-08-15T05:19:49.252Z,13.33
2016-08-15T05:20:49.273Z,13.28
2016-08-15T05:21:48.585Z,13.21
2016-08-15T05:22:49.329Z,13.28
2016-08-15T05:23:50.041Z,13.37
2016-08-15T05:24:49.366Z,13.46
2016-08-15T05:25:48.781Z,13.55
2016-08-15T05:26:49.678Z,13.61
2016-08-15T05:27:48.727Z,13.58
2016-08-15T05:28:50.153Z,13.67
2016-08-15T05:29:49.684Z,13.75
2016-08-15T05:30:50.211Z,13.79
2016-08-15T05:31:49.670Z,13.85
2016-08-15T05:32:49.540Z,13.85
2016-08-15T05:33:48.995Z,13.85
2016-08-15T05:34:49.586Z,13.95
2016-08-15T05:35:48.993Z,13.95
2016-08-15T05:36:50.330Z,13.98
2016-08-15T05:37:50.352Z,14.11
2016-08-15T05:38:49.950Z,14.16
2016-08-15T05:39:49.740Z,14.16
2016-08-15T05:40:49.892Z,14.23
2016-08-15T05:41:50.432Z,14.41
2016-08-15T05:42:49.877Z,14.49
2016-08-15T05:43:49.790Z,14.4
2016-08-15T05:44:49.839Z,14.45
2016-08-15T05:45:50.529Z,14.59
2016-08-15T05:46:50.596Z,14.52
2016-08-15T05:47:49.256Z,14.68
2016-08-15T05:48:49.860Z,14.71
2016-08-15T05:49:50.062Z,14.79
2016-08-15T05:50:49.941Z,14.81
2016-08-15T05:51:49.951Z,14.94
2016-08-15T05:52:49.950Z,14.89
2016-08-15T05:53:49.988Z,14.99
2016-08-15T05:54:50.004Z,15.12
2016-08-15T05:55:50.102Z,15.17
2016-08-15T05:56:50.058Z,15.17
2016-08-15T05:57:50.792Z,15.18
2016-08-15T05:58:49.387Z,15.27
2016-08-15T05:59:50.107Z,15.26
2016-08-15T06:00:49.430Z,15.5
2016-08-15T06:01:50.857Z,15.41
2016-08-15T06:02:50.891Z,15.51
2016-08-15T06:03:50.900Z,15.55
2016-08-15T06:04:50.220Z,15.55
2016-08-15T06:05:50.961Z,15.62
2016-08-15T06:06:50.361Z,15.7
2016-08-15T06:07:50.291Z,15.66
2016-08-15T06:08:51.010Z,15.72
2016-08-15T06:09:51.036Z,15.69
2016-08-15T06:10:50.365Z,15.72
2016-08-15T06:11:49.768Z,15.72
2016-08-15T06:12:50.462Z,15.69
2016-08-15T06:13:51.141Z,15.69
2016-08-15T06:14:50.460Z,15.7
2016-08-15T06:15:49.773Z,15.75
2016-08-15T06:16:51.202Z,15.69
2016-08-15T06:17:51.352Z,15.6
2016-08-15T06:18:50.550Z,15.54
2016-08-15T06:19:50.581Z,15.51
2016-08-15T06:20:50.596Z,15.48
2016-08-15T06:21:49.891Z,15.55
2016-08-15T06:22:51.341Z,15.52
2016-08-15T06:23:50.657Z,15.47
2016-08-15T06:24:51.412Z,15.48
2016-08-15T06:25:50.703Z,15.44
2016-08-15T06:26:50.721Z,15.6
2016-08-15T06:27:50.041Z,15.52
2016-08-15T06:28:50.830Z,15.5
2016-08-15T06:29:50.083Z,15.55
2016-08-15T06:30:50.915Z,15.52
2016-08-15T06:31:50.854Z,15.45
2016-08-15T06:32:50.880Z,15.43
2016-08-15T06:33:50.882Z,15.45
2016-08-15T06:34:50.911Z,15.41
2016-08-15T06:35:50.932Z,15.3
2016-08-15T06:36:51.679Z,15.41
2016-08-15T06:37:50.981Z,15.36
2016-08-15T06:38:51.727Z,15.27
2016-08-15T06:39:51.021Z,15.19
2016-08-15T06:40:51.042Z,15.3
2016-08-15T06:41:51.080Z,15.35
2016-08-15T06:42:51.090Z,15.25
2016-08-15T06:43:51.928Z,15.33
2016-08-15T06:44:50.426Z,15.43
2016-08-15T06:45:51.164Z,15.41
2016-08-15T06:46:51.191Z,15.48
2016-08-15T06:47:51.911Z,15.39
2016-08-15T06:48:50.570Z,15.52
2016-08-15T06:49:51.972Z,15.54
2016-08-15T06:50:50.591Z,15.62
2016-08-15T06:51:51.298Z,15.7
2016-08-15T06:52:51.410Z,15.73
2016-08-15T06:53:52.051Z,15.76
2016-08-15T06:54:51.383Z,15.84
2016-08-15T06:55:52.095Z,15.83
2016-08-15T06:56:51.419Z,15.88
2016-08-15T06:57:52.138Z,15.92
2016-08-15T06:58:52.193Z,16.05
2016-08-15T06:59:50.912Z,16.06
2016-08-15T07:00:50.871Z,16.17
2016-08-15T07:01:50.941Z,16.22
2016-08-15T07:02:50.855Z,16.18
2016-08-15T07:03:52.345Z,16.29
2016-08-15T07:04:52.311Z,16.29
2016-08-15T07:05:52.654Z,16.31
2016-08-15T07:06:52.359Z,16.32
2016-08-15T07:07:52.361Z,16.36
2016-08-15T07:08:51.699Z,16.43
2016-08-15T07:09:52.553Z,16.51
2016-08-15T07:10:52.428Z,16.57
2016-08-15T07:11:51.752Z,16.59
2016-08-15T07:12:51.814Z,16.68
2016-08-15T07:13:51.803Z,16.8
2016-08-15T07:14:51.842Z,16.83
2016-08-15T07:15:52.571Z,16.94
2016-08-15T07:16:51.880Z,17.1
2016-08-15T07:17:51.911Z,17.04
2016-08-15T07:18:52.622Z,16.98
2016-08-15T07:19:52.641Z,16.97
2016-08-15T07:20:51.952Z,17.07
2016-08-15T07:21:51.991Z,17.12
2016-08-15T07:22:52.730Z,17.19
2016-08-15T07:23:51.333Z,17.14
2016-08-15T07:24:52.779Z,17.07
2016-08-15T07:25:52.859Z,16.97
2016-08-15T07:26:52.818Z,17.05
2016-08-15T07:27:52.238Z,17.14
2016-08-15T07:28:52.861Z,17.31
2016-08-15T07:29:51.522Z,17.37
2016-08-15T07:30:52.917Z,17.56
2016-08-15T07:31:52.943Z,17.59
2016-08-15T07:32:52.253Z,17.6
2016-08-15T07:33:52.992Z,17.9
2016-08-15T07:34:53.021Z,18
2016-08-15T07:35:52.331Z,18.12
2016-08-15T07:36:52.343Z,18.42
2016-08-15T07:37:52.528Z,18.49
2016-08-15T07:38:52.552Z,18.58
2016-08-15T07:39:52.567Z,18.71
2016-08-15T07:40:53.271Z,18.89
2016-08-15T07:41:53.318Z,18.85
2016-08-15T07:42:51.833Z,18.98
2016-08-15T07:43:52.618Z,19.22
2016-08-15T07:44:53.292Z,19.38
2016-08-15T07:45:52.673Z,19.59
2016-08-15T07:46:52.616Z,19.81
2016-08-15T07:47:53.323Z,19.9
2016-08-15T07:48:53.332Z,19.81
2016-08-15T07:49:53.424Z,19.87
2016-08-15T07:50:52.687Z,19.94
2016-08-15T07:51:52.717Z,20.11
2016-08-15T07:52:52.022Z,20.03
2016-08-15T07:53:52.759Z,20
2016-08-15T07:54:52.083Z,20.03
2016-08-15T07:55:53.531Z,20.08
2016-08-15T07:56:53.547Z,20.12
2016-08-15T07:57:53.553Z,20.19
2016-08-15T07:58:53.609Z,20.3
2016-08-15T07:59:53.615Z,20.53
2016-08-15T08:00:53.086Z,20.64
2016-08-15T08:01:52.964Z,20.75
2016-08-15T08:02:52.984Z,20.75
2016-08-15T08:03:53.711Z,20.89
2016-08-15T08:04:52.330Z,20.88
2016-08-15T08:05:53.783Z,21.26
2016-08-15T08:06:53.088Z,21.44
2016-08-15T08:07:52.401Z,21.68
2016-08-15T08:08:53.132Z,22.01
2016-08-15T08:09:53.247Z,22.1
2016-08-15T08:10:53.170Z,22.31
2016-08-15T08:11:53.268Z,22.36
2016-08-15T08:12:53.220Z,22.55
2016-08-15T08:13:52.550Z,22.67
2016-08-15T08:14:53.992Z,22.76
2016-08-15T08:15:53.314Z,22.95
2016-08-15T08:16:52.703Z,23.04
2016-08-15T08:17:52.641Z,23.14
2016-08-15T08:18:53.394Z,23.33
2016-08-15T08:19:53.389Z,23.49
2016-08-15T08:20:53.484Z,23.54
2016-08-15T08:21:54.163Z,23.59
2016-08-15T08:22:53.488Z,23.67
2016-08-15T08:23:53.522Z,23.76
2016-08-15T08:24:52.833Z,23.79
2016-08-15T08:25:53.571Z,23.86
2016-08-15T08:26:52.871Z,24.01
2016-08-15T08:27:53.619Z,24.01
2016-08-15T08:28:53.651Z,24.09
2016-08-15T08:29:53.673Z,24.19
2016-08-15T08:30:53.687Z,24.25
2016-08-15T08:31:53.729Z,24.34
2016-08-15T08:32:54.450Z,24.44
2016-08-15T08:33:54.699Z,24.48
2016-08-15T08:34:54.500Z,24.65
2016-08-15T08:35:53.134Z,24.68
2016-08-15T08:36:53.858Z,24.81
2016-08-15T08:37:54.593Z,24.89
2016-08-15T08:38:54.645Z,24.94
2016-08-15T08:39:54.636Z,25.04
2016-08-15T08:40:53.961Z,25.24
2016-08-15T08:41:53.989Z,25.34
2016-08-15T08:42:54.012Z,25.39
2016-08-15T08:43:54.042Z,25.48
2016-08-15T08:44:53.359Z,25.49
2016-08-15T08:45:53.400Z,25.67
2016-08-15T08:46:54.159Z,25.73
2016-08-15T08:47:54.859Z,25.81
2016-08-15T08:48:54.171Z,25.92
2016-08-15T08:49:54.298Z,26.06
2016-08-15T08:50:54.927Z,26.19
2016-08-15T08:51:54.958Z,26.07
2016-08-15T08:52:54.992Z,26.27
2016-08-15T08:53:53.617Z,26.36
2016-08-15T08:54:54.350Z,26.39
2016-08-15T08:55:54.362Z,26.42
2016-08-15T08:56:54.391Z,26.45
2016-08-15T08:57:54.416Z,26.53
2016-08-15T08:58:54.462Z,26.48
2016-08-15T08:59:54.490Z,26.52
2016-08-15T09:00:53.793Z,26.37
2016-08-15T09:01:54.622Z,26.48
2016-08-15T09:02:54.562Z,26.52
2016-08-15T09:03:54.590Z,26.67
2016-08-15T09:04:55.463Z,26.56
2016-08-15T09:05:54.693Z,26.53
2016-08-15T09:06:55.402Z,26.56
2016-08-15T09:07:54.707Z,26.66
2016-08-15T09:08:54.037Z,26.51
2016-08-15T09:09:54.809Z,26.42
2016-08-15T09:10:55.503Z,26.15
2016-08-15T09:11:55.509Z,26.1
2016-08-15T09:12:54.843Z,26.22
2016-08-15T09:13:55.594Z,26.1
2016-08-15T09:14:54.890Z,26.31
2016-08-15T09:15:54.936Z,26.53
2016-08-15T09:16:54.963Z,26.67
2016-08-15T09:17:54.999Z,26.85
2016-08-15T09:18:55.011Z,27.03
2016-08-15T09:19:55.835Z,27.16
2016-08-15T09:20:55.766Z,27.11
2016-08-15T09:21:55.180Z,27.05
2016-08-15T09:22:55.127Z,27.18
2016-08-15T09:23:55.159Z,27.15
2016-08-15T09:24:55.929Z,27.23
2016-08-15T09:25:55.211Z,27.33
2016-08-15T09:26:55.313Z,27.26
2016-08-15T09:27:54.562Z,27.22
2016-08-15T09:28:54.597Z,26.93
2016-08-15T09:29:55.332Z,26.68
2016-08-15T09:30:55.396Z,26.1
2016-08-15T09:31:56.114Z,25.95
2016-08-15T09:32:54.701Z,25.68
2016-08-15T09:33:55.462Z,25.51
2016-08-15T09:34:56.170Z,25.36
2016-08-15T09:35:55.515Z,25.29
2016-08-15T09:36:55.532Z,25.21
2016-08-15T09:37:55.555Z,25.06
2016-08-15T09:38:55.572Z,25
2016-08-15T09:39:56.314Z,25.07
2016-08-15T09:40:55.642Z,25.06
2016-08-15T09:41:54.971Z,24.99
2016-08-15T09:42:55.707Z,25.01
2016-08-15T09:43:55.731Z,24.99
2016-08-15T09:44:56.463Z,25.04
2016-08-15T09:45:55.070Z,24.93
2016-08-15T09:46:55.823Z,24.66
2016-08-15T09:47:55.838Z,24.37
2016-08-15T09:48:55.176Z,24.36
2016-08-15T09:49:55.899Z,24.18
2016-08-15T09:50:55.921Z,24.16
2016-08-15T09:51:55.950Z,24.25
2016-08-15T09:52:56.061Z,24.14
2016-08-15T09:53:56.023Z,24.22
2016-08-15T09:54:56.751Z,24.21
2016-08-15T09:55:56.781Z,24.43
2016-08-15T09:56:55.393Z,24.5
2016-08-15T09:57:56.934Z,24.63
2016-08-15T09:58:55.442Z,24.62
2016-08-15T09:59:56.873Z,24.78
2016-08-15T10:00:56.193Z,24.94
2016-08-15T10:01:55.511Z,24.89
2016-08-15T10:02:56.263Z,24.89
2016-08-15T10:03:56.293Z,24.82
2016-08-15T10:04:56.315Z,24.78
2016-08-15T10:05:56.399Z,24.78
2016-08-15T10:06:56.448Z,24.77
2016-08-15T10:07:57.123Z,24.75
2016-08-15T10:08:57.162Z,24.56
2016-08-15T10:09:57.145Z,24.38
2016-08-15T10:10:57.183Z,24.21
2016-08-15T10:11:56.493Z,24.18
2016-08-15T10:12:57.232Z,24.04
2016-08-15T10:13:56.571Z,23.88
2016-08-15T10:14:57.291Z,23.49
2016-08-15T10:15:56.607Z,23.21
2016-08-15T10:16:55.929Z,23.06
2016-08-15T10:17:55.961Z,22.8
2016-08-15T10:19:56.733Z,22.63
2016-08-15T10:20:57.453Z,22.52
2016-08-15T10:21:57.478Z,22.53
2016-08-15T10:22:57.514Z,22.52
2016-08-15T10:23:56.822Z,22.63
2016-08-15T10:24:56.153Z,22.62
2016-08-15T10:25:57.588Z,22.73
2016-08-15T10:26:56.965Z,22.81
2016-08-15T10:27:57.651Z,22.77
2016-08-15T10:28:56.946Z,22.67
2016-08-15T10:29:56.981Z,22.62
2016-08-15T10:30:57.816Z,22.51
2016-08-15T10:31:56.332Z,22.43
2016-08-15T10:32:57.065Z,22.43
2016-08-15T10:33:57.787Z,22.51
2016-08-15T10:34:57.820Z,22.38
2016-08-15T10:35:57.220Z,22.33
2016-08-15T10:36:57.227Z,22.36
2016-08-15T10:37:57.272Z,22.4
2016-08-15T10:38:57.933Z,22.33
2016-08-15T10:39:57.986Z,22.31
2016-08-15T10:40:57.990Z,22.16
2016-08-15T10:41:58.009Z,22.1
2016-08-15T10:42:56.620Z,22.18
2016-08-15T10:43:57.350Z,22.14
2016-08-15T10:44:56.681Z,22.04
2016-08-15T10:45:56.700Z,22.08
2016-08-15T10:46:58.151Z,22.16
2016-08-15T10:47:58.175Z,22.1
2016-08-15T10:48:56.871Z,22.1
2016-08-15T10:49:56.802Z,22.07
2016-08-15T10:50:57.640Z,22.12
2016-08-15T10:51:58.246Z,22.07
2016-08-15T10:52:58.329Z,22.08
2016-08-15T10:53:57.621Z,22.07
2016-08-15T10:54:56.942Z,22.07
2016-08-15T10:55:58.392Z,22.07
2016-08-15T10:56:58.407Z,22.07
2016-08-15T10:57:57.808Z,22.33
2016-08-15T10:58:58.449Z,22.4
2016-08-15T10:59:58.887Z,22.56
2016-08-15T11:00:58.489Z,22.61
2016-08-15T11:01:57.110Z,22.78
2016-08-15T11:02:57.843Z,22.99
2016-08-15T11:03:57.881Z,23.18
2016-08-15T11:04:58.809Z,23.48
2016-08-15T11:05:58.941Z,23.54
2016-08-15T11:06:58.761Z,23.49
2016-08-15T11:07:58.003Z,23.44
2016-08-15T11:08:58.050Z,23.28
2016-08-15T11:09:58.845Z,23.1
2016-08-15T11:10:58.077Z,22.98
2016-08-15T11:11:58.081Z,22.98
2016-08-15T11:12:58.220Z,22.99
2016-08-15T11:13:57.449Z,23.07
2016-08-15T11:14:58.163Z,23.18
2016-08-15T11:15:58.896Z,23.36
2016-08-15T11:16:58.918Z,23.52
2016-08-15T11:17:58.245Z,23.76
2016-08-15T11:18:58.281Z,23.91
2016-08-15T11:19:58.998Z,23.95
2016-08-15T11:20:59.044Z,23.92
2016-08-15T11:21:58.431Z,24.01
2016-08-15T11:22:58.363Z,24.25
2016-08-15T11:23:59.119Z,24.41
2016-08-15T11:24:58.430Z,24.82
2016-08-15T11:25:58.461Z,25.06
2016-08-15T11:26:57.785Z,25.31
2016-08-15T11:27:59.222Z,25.37
2016-08-15T11:28:59.230Z,25.14
2016-08-15T11:29:59.300Z,25.14
2016-08-15T11:30:59.309Z,25.01
2016-08-15T11:31:57.931Z,25.21
2016-08-15T11:32:59.494Z,25.31
2016-08-15T11:33:58.654Z,25.44
2016-08-15T11:34:57.978Z,25.66
2016-08-15T11:35:58.708Z,25.91
2016-08-15T11:36:58.938Z,26.19
2016-08-15T11:37:59.475Z,26.24
2016-08-15T11:38:58.957Z,26.22
2016-08-15T11:39:59.530Z,26.27
2016-08-15T11:40:59.572Z,26.22
2016-08-15T11:41:59.080Z,26.23
2016-08-15T11:42:58.957Z,26.18
2016-08-15T11:43:58.238Z,26.23
2016-08-15T11:44:59.699Z,26.08
2016-08-15T11:45:59.141Z,26.18
2016-08-15T11:46:59.022Z,26.07
2016-08-15T11:47:59.081Z,26.33
2016-08-15T11:48:59.085Z,26.37
2016-08-15T11:49:59.117Z,26.37
2016-08-15T11:50:58.429Z,26.16
2016-08-15T11:51:58.461Z,25.86
2016-08-15T11:52:59.212Z,25.66
2016-08-15T11:53:59.921Z,25.52
2016-08-15T11:54:59.253Z,25.44
2016-08-15T11:55:59.280Z,25.41
2016-08-15T11:56:59.312Z,25.4
2016-08-15T11:57:59.335Z,25.33
2016-08-15T11:58:59.359Z,25.16
2016-08-15T11:59:59.471Z,25.01
2016-08-15T12:01:00.128Z,25.01
2016-08-15T12:01:59.592Z,25.07
2016-08-15T12:02:59.474Z,25.04
2016-08-15T12:04:00.250Z,24.92
2016-08-15T12:04:59.532Z,24.68
2016-08-15T12:05:58.859Z,24.5
2016-08-15T12:06:59.581Z,24.38
2016-08-15T12:08:00.333Z,24.38
2016-08-15T12:08:59.644Z,24.37
2016-08-15T12:10:00.381Z,24.21
2016-08-15T12:11:00.397Z,24.36
2016-08-15T12:12:00.421Z,24.25
2016-08-15T12:13:00.590Z,24.32
2016-08-15T12:13:59.781Z,24.36
2016-08-15T12:15:00.811Z,24.22
2016-08-15T12:16:00.541Z,24.04
2016-08-15T12:16:59.843Z,23.92
2016-08-15T12:18:00.588Z,23.77
2016-08-15T12:19:00.678Z,23.86
2016-08-15T12:20:00.657Z,23.99
2016-08-15T12:21:00.684Z,24.09
2016-08-15T12:22:00.712Z,24.14
2016-08-15T12:23:00.731Z,24
2016-08-15T12:24:00.152Z,24.16
2016-08-15T12:25:00.790Z,24.14
2016-08-15T12:26:00.863Z,23.96
2016-08-15T12:27:00.841Z,23.7
2016-08-15T12:28:00.160Z,23.59
2016-08-15T12:29:00.899Z,23.71
2016-08-15T12:30:00.955Z,23.73
2016-08-15T12:31:00.253Z,23.47
2016-08-15T12:32:01.023Z,23.45
2016-08-15T12:33:00.300Z,23.51
2016-08-15T12:34:00.403Z,23.18
2016-08-15T12:35:00.403Z,22.36
2016-08-15T12:36:01.091Z,22.23
2016-08-15T12:37:01.115Z,22.38
2016-08-15T12:38:00.438Z,22.53
2016-08-15T12:39:01.171Z,22.65
2016-08-15T12:40:00.498Z,22.77
2016-08-15T12:40:59.807Z,22.83
2016-08-15T12:42:01.266Z,22.76
2016-08-15T12:43:00.575Z,22.71
2016-08-15T12:44:00.603Z,22.84
2016-08-15T12:45:00.629Z,22.92
2016-08-15T12:46:00.653Z,23.32
2016-08-15T12:47:01.384Z,23.16
2016-08-15T12:48:01.526Z,23.21
2016-08-15T12:49:00.734Z,23.23
2016-08-15T12:50:01.473Z,23.17
2016-08-15T12:51:00.785Z,23.26
2016-08-15T12:52:00.821Z,23.49
2016-08-15T12:53:00.844Z,23.52
2016-08-15T12:54:00.863Z,23.7
2016-08-15T12:55:01.605Z,23.89
2016-08-15T12:56:00.205Z,23.92
2016-08-15T12:57:00.952Z,24
2016-08-15T12:58:00.965Z,24.24